createdAt,value
2023-04-15T00:00:56.878Z,99138.91
2023-04-15T00:05:58.654Z,99135.38
2023-04-15T00:11:03.155Z,99142.44
2023-04-15T00:16:06.344Z,99134.69
2023-04-15T00:21:08.021Z,99123.66
2023-04-15T00:26:09.946Z,99121.66
2023-04-15T00:31:12.188Z,99126.34
2023-04-15T00:36:13.886Z,99121.81
2023-04-15T00:41:15.652Z,99114.63
2023-04-15T00:46:17.724Z,99110.94
2023-04-15T00:51:20.068Z,99112.94
2023-04-15T00:56:24.403Z,99105.91
2023-04-15T01:01:26.828Z,99110.94
2023-04-15T01:06:29.194Z,99102.91
2023-04-15T01:11:33.579Z,99098.53
2023-04-15T01:16:39.702Z,99093.19
2023-04-15T01:21:41.635Z,99087.81
2023-04-15T01:26:44.534Z,99094.19
2023-04-15T01:31:52.236Z,99082.44
2023-04-15T01:36:54.079Z,99082.44
2023-04-15T01:41:57.489Z,99083.28
2023-04-15T01:46:59.432Z,99071.25
2023-04-15T01:52:02.001Z,99080.47
2023-04-15T01:57:03.879Z,99079.47
2023-04-15T02:02:05.743Z,99069.72
2023-04-15T02:07:07.394Z,99067.06
2023-04-15T02:12:10.407Z,99055.16
2023-04-15T02:17:12.052Z,99058.84
2023-04-15T02:22:18.417Z,99058.84
2023-04-15T02:27:22.521Z,99057.00
2023-04-15T02:32:25.609Z,99058.38
2023-04-15T02:37:31.141Z,99043.97
2023-04-15T02:42:33.328Z,99048.66
2023-04-15T02:47:36.391Z,99047.50
2023-04-15T02:52:41.873Z,99057.38
2023-04-15T02:57:44.192Z,99053.84
2023-04-15T03:02:47.034Z,99059.22
2023-04-15T03:07:48.905Z,99045.66
2023-04-15T03:12:51.044Z,99047.34
2023-04-15T03:17:55.249Z,99041.97
2023-04-15T03:22:57.154Z,99035.78
2023-04-15T03:28:00.654Z,99040.13
2023-04-15T03:33:02.729Z,99041.13
2023-04-15T03:38:04.705Z,99024.03
2023-04-15T03:43:06.357Z,99023.19
2023-04-15T03:48:17.153Z,99022.38
2023-04-15T03:53:21.422Z,99016.00
2023-04-15T03:58:23.112Z,99008.28
2023-04-15T04:03:24.934Z,99001.59
2023-04-15T04:08:27.590Z,99003.28
2023-04-15T04:13:29.245Z,99010.31
2023-04-15T04:18:34.146Z,99030.75
2023-04-15T04:23:35.762Z,99021.03
2023-04-15T04:28:39.580Z,99021.03
2023-04-15T04:33:41.382Z,99020.72
2023-04-15T04:38:43.007Z,99023.41
2023-04-15T04:43:44.613Z,99029.75
2023-04-15T04:48:47.228Z,99027.59
2023-04-15T04:53:48.879Z,99032.66
2023-04-15T04:58:51.308Z,99034.16
2023-04-15T05:03:53.444Z,99036.69
2023-04-15T05:08:55.168Z,99037.19
2023-04-15T05:13:58.086Z,99035.38
2023-04-15T05:18:59.943Z,99042.94
2023-04-15T05:24:01.919Z,99052.69
2023-04-15T05:29:03.999Z,99047.16
2023-04-15T05:34:07.119Z,99057.25
2023-04-15T05:39:09.222Z,99051.03
2023-04-15T05:44:11.042Z,99049.34
2023-04-15T05:49:12.725Z,99057.41
2023-04-15T05:54:14.462Z,99068.97
2023-04-15T05:59:16.159Z,99075.00
2023-04-15T06:04:17.963Z,99079.38
2023-04-15T06:09:19.743Z,99082.22
2023-04-15T06:14:21.392Z,99084.44
2023-04-15T06:19:23.394Z,99090.94
2023-04-15T06:24:25.221Z,99094.63
2023-04-15T06:29:27.249Z,99091.28
2023-04-15T06:34:28.853Z,99092.97
2023-04-15T06:39:30.465Z,99105.88
2023-04-15T06:44:33.779Z,99106.09
2023-04-15T06:49:35.676Z,99110.16
2023-04-15T06:54:37.644Z,99107.00
2023-04-15T06:59:39.569Z,99112.19
2023-04-15T07:04:41.324Z,99124.13
2023-04-15T07:09:43.194Z,99122.47
2023-04-15T07:14:45.131Z,99127.38
2023-04-15T07:19:49.922Z,99125.03
2023-04-15T07:24:51.698Z,99142.84
2023-04-15T07:29:53.972Z,99143.84
2023-04-15T07:34:55.572Z,99140.69
2023-04-15T07:39:57.534Z,99143.75
2023-04-15T07:44:59.202Z,99155.69
2023-04-15T07:50:00.841Z,99162.09
2023-04-15T07:55:02.448Z,99162.66
2023-04-15T08:00:07.557Z,99159.47
2023-04-15T08:05:16.023Z,99165.19
2023-04-15T08:10:18.108Z,99177.88
2023-04-15T08:15:20.696Z,99187.28
2023-04-15T08:20:22.459Z,99189.78
2023-04-15T08:25:24.098Z,99188.25
2023-04-15T08:30:26.328Z,99182.16
2023-04-15T08:35:27.967Z,99198.69
2023-04-15T08:40:39.352Z,99191.63
2023-04-15T08:45:42.551Z,99195.34
2023-04-15T08:50:45.462Z,99196.84
2023-04-15T08:55:52.776Z,99204.25
2023-04-15T09:00:54.962Z,99207.22
2023-04-15T09:05:57.573Z,99216.13
2023-04-15T09:11:03.375Z,99215.91
2023-04-15T09:16:05.878Z,99220.97
2023-04-15T09:21:14.973Z,99221.91
2023-04-15T09:26:17.024Z,99234.19
2023-04-15T09:31:19.490Z,99236.03
2023-04-15T09:36:21.426Z,99237.03
2023-04-15T09:41:23.374Z,99258.06
2023-04-15T09:46:44.083Z,99256.88
2023-04-15T09:51:54.385Z,99266.44
2023-04-15T09:57:12.321Z,99276.78
2023-04-15T10:02:14.476Z,99274.06
2023-04-15T10:07:20.524Z,99276.94
2023-04-15T10:12:23.024Z,99274.09
2023-04-15T10:17:31.128Z,99291.56
2023-04-15T10:22:33.430Z,99285.53
2023-04-15T10:27:36.830Z,99295.94
2023-04-15T10:32:39.466Z,99298.38
2023-04-15T10:37:41.363Z,99294.84
2023-04-15T10:42:44.451Z,99289.47
2023-04-15T10:47:46.167Z,99299.47
2023-04-15T10:52:51.911Z,99313.00
2023-04-15T10:57:55.075Z,99306.97
2023-04-15T11:02:57.687Z,99301.78
2023-04-15T11:07:59.463Z,99316.97
2023-04-15T11:13:03.623Z,99324.88
2023-04-15T11:18:14.442Z,99332.28
2023-04-15T11:23:19.151Z,99332.59
2023-04-15T11:28:20.845Z,99338.00
2023-04-15T11:33:24.287Z,99339.16
2023-04-15T11:38:25.910Z,99347.41
2023-04-15T11:43:27.566Z,99352.97
2023-04-15T11:48:34.391Z,99357.16
2023-04-15T11:53:44.320Z,99362.53
2023-04-15T11:58:46.693Z,99360.03
2023-04-15T12:03:49.590Z,99364.75
2023-04-15T12:09:06.899Z,99371.31
2023-04-15T12:14:13.488Z,99385.63
2023-04-15T12:19:17.103Z,99390.84
2023-04-15T12:24:23.418Z,99396.06
2023-04-15T12:29:27.602Z,99403.13
2023-04-15T12:34:40.827Z,99403.81
2023-04-15T12:39:44.350Z,99412.38
2023-04-15T12:44:46.430Z,99419.16
2023-04-15T12:49:49.611Z,99425.72
2023-04-15T12:54:51.570Z,99428.72
2023-04-15T12:59:53.474Z,99434.63
2023-04-15T13:04:58.298Z,99439.84
2023-04-15T13:09:59.948Z,99445.91
2023-04-15T13:15:02.829Z,99446.75
2023-04-15T13:20:06.298Z,99451.97
2023-04-15T13:25:10.700Z,99451.81
2023-04-15T13:30:15.284Z,99455.84
2023-04-15T13:35:17.185Z,99461.75
2023-04-15T13:40:20.083Z,99470.13
2023-04-15T13:45:21.825Z,99469.50
2023-04-15T13:50:23.792Z,99472.09
2023-04-15T13:55:27.046Z,99477.16
2023-04-15T14:00:29.184Z,99479.19
2023-04-15T14:05:30.918Z,99478.88
2023-04-15T14:10:32.622Z,99480.53
2023-04-15T14:15:34.285Z,99492.19
2023-04-15T14:20:35.963Z,99499.53
2023-04-15T14:25:39.219Z,99503.00
2023-04-15T14:30:40.990Z,99504.66
2023-04-15T14:35:43.342Z,99513.28
2023-04-15T14:40:45.310Z,99523.63
2023-04-15T14:45:47.013Z,99519.00
2023-04-15T14:50:48.764Z,99526.06
2023-04-15T14:55:50.409Z,99537.53
2023-04-15T15:00:52.018Z,99533.66
2023-04-15T15:05:53.809Z,99539.22
2023-04-15T15:10:55.640Z,99549.88
2023-04-15T15:15:57.367Z,99555.38
2023-04-15T15:20:59.040Z,99559.41
2023-04-15T15:26:00.781Z,99571.06
2023-04-15T15:31:02.493Z,99580.75
2023-04-15T15:36:04.687Z,99580.78
2023-04-15T15:41:06.350Z,99587.56
2023-04-15T15:46:08.397Z,99588.88
2023-04-15T15:51:10.332Z,99600.88
2023-04-15T15:56:12.027Z,99608.63
2023-04-15T16:01:13.742Z,99605.97
2023-04-15T16:06:15.513Z,99618.81
2023-04-15T16:11:17.300Z,99614.59
2023-04-15T16:16:19.016Z,99624.56
2023-04-15T16:21:20.842Z,99626.94
2023-04-15T16:26:23.144Z,99627.25
2023-04-15T16:31:24.942Z,99638.72
2023-04-15T16:36:27.828Z,99635.19
2023-04-15T16:41:29.520Z,99637.22
2023-04-15T16:46:31.685Z,99649.03
2023-04-15T16:51:33.384Z,99657.31
2023-04-15T16:56:35.127Z,99661.50
2023-04-15T17:01:36.772Z,99668.06
2023-04-15T17:06:38.974Z,99672.97
2023-04-15T17:11:40.736Z,99683.25
2023-04-15T17:16:43.259Z,99675.66
2023-04-15T17:21:44.875Z,99679.00
2023-04-15T17:26:47.248Z,99686.56
2023-04-15T17:31:48.996Z,99690.94
2023-04-15T17:36:52.125Z,99699.00
2023-04-15T17:41:53.767Z,99714.13
2023-04-15T17:46:55.470Z,99713.25
2023-04-15T17:51:57.690Z,99726.53
2023-04-15T17:57:00.196Z,99739.66
2023-04-15T18:02:02.146Z,99746.38
2023-04-15T18:07:05.170Z,99747.19
2023-04-15T18:12:07.767Z,99753.53
2023-04-15T18:17:09.496Z,99762.22
2023-04-15T18:22:11.108Z,99769.25
2023-04-15T18:27:12.912Z,99771.59
2023-04-15T18:32:17.440Z,99779.63
2023-04-15T18:37:19.098Z,99786.47
2023-04-15T18:42:21.659Z,99798.56
2023-04-15T18:47:25.181Z,99797.66
2023-04-15T18:52:28.167Z,99808.91
2023-04-15T18:57:32.978Z,99808.69
2023-04-15T19:02:36.677Z,99806.41
2023-04-15T19:07:38.445Z,99814.41
2023-04-15T19:12:40.348Z,99831.19
2023-04-15T19:17:42.012Z,99834.63
2023-04-15T19:22:44.743Z,99838.78
2023-04-15T19:27:46.396Z,99852.00
2023-04-15T19:32:48.156Z,99853.16
2023-04-15T19:37:49.926Z,99856.28
2023-04-15T19:42:51.560Z,99860.44
2023-04-15T19:47:53.819Z,99861.97
2023-04-15T19:52:55.634Z,99865.13
2023-04-15T19:57:57.281Z,99876.47
2023-04-15T20:02:59.061Z,99873.38
2023-04-15T20:08:01.618Z,99877.81
2023-04-15T20:13:03.483Z,99884.47
2023-04-15T20:18:05.209Z,99890.59
2023-04-15T20:23:06.942Z,99905.03
2023-04-15T20:28:08.615Z,99907.47
2023-04-15T20:33:10.268Z,99915.25
2023-04-15T20:38:12.776Z,99920.78
2023-04-15T20:43:14.556Z,99922.19
2023-04-15T20:48:16.308Z,99923.47
2023-04-15T20:53:17.921Z,99922.78
2023-04-15T20:58:19.951Z,99925.47
2023-04-15T21:03:21.928Z,99933.78
2023-04-15T21:08:29.232Z,99937.63
2023-04-15T21:13:30.940Z,99942.97
2023-04-15T21:18:32.548Z,99950.19
2023-04-15T21:23:35.993Z,99965.31
2023-04-15T21:28:38.992Z,99968.72
2023-04-15T21:33:40.609Z,99971.81
2023-04-15T21:38:42.253Z,99973.38
2023-04-15T21:43:43.932Z,99973.78
2023-04-15T21:48:46.209Z,99983.97
2023-04-15T21:53:48.205Z,99983.28
2023-04-15T21:58:50.029Z,99988.94
2023-04-15T22:03:51.835Z,99993.59
2023-04-15T22:08:57.351Z,99999.13
2023-04-15T22:13:59.494Z,100000.09
2023-04-15T22:19:02.683Z,100010.72
2023-04-15T22:24:32.461Z,100013.41
2023-04-15T22:29:28.929Z,100016.38
2023-04-15T22:34:30.588Z,100018.22
2023-04-15T22:39:32.243Z,100029.50
2023-04-15T22:44:33.919Z,100038.00
2023-04-15T22:49:36.246Z,100045.63
2023-04-15T22:54:37.945Z,100035.44
2023-04-15T22:59:39.936Z,100043.50
2023-04-15T23:04:41.699Z,100049.72
2023-04-15T23:09:43.394Z,100051.44
2023-04-15T23:14:45.062Z,100054.97
2023-04-15T23:19:46.644Z,100060.34
2023-04-15T23:24:48.271Z,100062.16
2023-04-15T23:29:49.955Z,100066.28
2023-04-15T23:34:52.252Z,100066.84
2023-04-15T23:39:55.706Z,100061.47
2023-04-15T23:44:57.407Z,100063.00
2023-04-15T23:49:59.074Z,100065.25
2023-04-15T23:55:00.911Z,100068.63
